createdAt,value
2022-09-29T00:01:38.961Z,3.53
2022-09-29T00:04:05.391Z,3.57
2022-09-29T00:06:32.232Z,4.73
2022-09-29T00:08:58.663Z,3.37
2022-09-29T00:11:25.069Z,4.27
2022-09-29T00:13:51.535Z,3.37
2022-09-29T00:16:18.020Z,3.87
2022-09-29T00:18:44.451Z,6.23
2022-09-29T00:21:19.833Z,3.73
2022-09-29T00:23:46.853Z,5.23
2022-09-29T00:26:15.969Z,5.97
2022-09-29T00:28:48.280Z,3.37
2022-09-29T00:31:15.404Z,5.77
2022-09-29T00:33:41.918Z,3.37
2022-09-29T00:36:14.459Z,3.80
2022-09-29T00:38:42.505Z,4.10
2022-09-29T00:41:17.888Z,5.43
2022-09-29T00:44:05.824Z,4.37
2022-09-29T00:46:53.484Z,3.57
2022-09-29T00:49:34.105Z,3.73
2022-09-29T00:52:21.056Z,4.93
2022-09-29T00:54:53.152Z,7.07
2022-09-29T00:57:23.524Z,3.70
2022-09-29T01:00:13.808Z,4.70
2022-09-29T01:02:46.750Z,5.53
2022-09-29T01:05:19.638Z,5.07
2022-09-29T01:07:46.282Z,5.00
2022-09-29T01:10:17.092Z,5.73
2022-09-29T01:12:46.845Z,6.00
2022-09-29T01:15:16.220Z,5.07
2022-09-29T01:17:42.762Z,5.50
2022-09-29T01:20:15.427Z,4.33
2022-09-29T01:22:57.385Z,6.20
2022-09-29T01:26:02.848Z,5.47
2022-09-29T01:28:56.882Z,4.70
2022-09-29T01:31:57.800Z,5.00
2022-09-29T01:34:43.043Z,5.27
2022-09-29T01:37:28.311Z,6.53
2022-09-29T01:40:04.037Z,5.03
2022-09-29T01:42:36.632Z,4.50
2022-09-29T01:45:15.493Z,7.83
2022-09-29T01:47:49.884Z,6.37
2022-09-29T01:50:40.949Z,5.87
2022-09-29T01:53:13.291Z,8.60
2022-09-29T01:55:46.425Z,6.47
2022-09-29T01:58:20.034Z,9.50
2022-09-29T02:00:53.178Z,4.20
2022-09-29T02:03:31.669Z,5.80
2022-09-29T02:06:08.911Z,6.27
2022-09-29T02:08:55.987Z,5.93
2022-09-29T02:11:23.015Z,5.23
2022-09-29T02:14:18.657Z,6.17
2022-09-29T02:16:52.133Z,5.90
2022-09-29T02:19:29.116Z,4.93
2022-09-29T02:21:55.683Z,5.63
2022-09-29T02:24:23.328Z,5.97
2022-09-29T02:26:51.496Z,4.80
2022-09-29T02:29:19.237Z,5.33
2022-09-29T02:31:46.947Z,4.30
2022-09-29T02:34:21.669Z,5.60
2022-09-29T02:37:15.470Z,6.67
2022-09-29T02:39:41.747Z,6.20
2022-09-29T02:42:29.565Z,5.60
2022-09-29T02:45:16.314Z,4.93
2022-09-29T02:47:51.201Z,8.87
2022-09-29T02:50:36.085Z,4.23
2022-09-29T02:53:02.410Z,5.23
2022-09-29T02:55:49.719Z,6.90
2022-09-29T02:58:24.837Z,6.23
2022-09-29T03:00:54.084Z,6.67
2022-09-29T03:03:20.546Z,5.87
2022-09-29T03:05:47.324Z,5.27
2022-09-29T03:08:13.653Z,6.87
2022-09-29T03:10:40.027Z,7.03
2022-09-29T03:13:06.388Z,6.43
2022-09-29T03:15:32.770Z,6.67
2022-09-29T03:17:59.141Z,6.13
2022-09-29T03:20:26.474Z,6.03
2022-09-29T03:22:56.450Z,7.00
2022-09-29T03:25:24.522Z,6.73
2022-09-29T03:27:51.488Z,7.57
2022-09-29T03:30:18.941Z,6.77
2022-09-29T03:32:45.356Z,9.73
2022-09-29T03:35:12.233Z,9.83
2022-09-29T03:37:38.588Z,7.33
2022-09-29T03:40:06.041Z,6.20
2022-09-29T03:42:32.658Z,8.10
2022-09-29T03:44:59.141Z,6.93
2022-09-29T03:47:25.565Z,8.43
2022-09-29T03:49:51.940Z,7.70
2022-09-29T03:52:19.001Z,6.10
2022-09-29T03:54:45.466Z,6.13
2022-09-29T03:57:12.256Z,6.93
2022-09-29T03:59:42.084Z,9.50
2022-09-29T04:02:11.745Z,9.07
2022-09-29T04:04:38.178Z,9.23
2022-09-29T04:07:04.517Z,9.20
2022-09-29T04:09:31.056Z,8.17
2022-09-29T04:11:57.435Z,6.93
2022-09-29T04:14:23.800Z,8.17
2022-09-29T04:16:50.145Z,8.03
2022-09-29T04:19:16.585Z,8.37
2022-09-29T04:21:43.012Z,6.70
2022-09-29T04:24:09.414Z,8.80
2022-09-29T04:26:35.801Z,7.10
2022-09-29T04:29:02.175Z,6.40
2022-09-29T04:31:28.862Z,7.60
2022-09-29T04:33:55.283Z,7.13
2022-09-29T04:36:21.634Z,8.27
2022-09-29T04:38:50.216Z,7.97
2022-09-29T04:41:16.595Z,9.23
2022-09-29T04:43:43.123Z,7.07
2022-09-29T04:46:10.162Z,7.03
2022-09-29T04:48:37.856Z,6.13
2022-09-29T04:51:05.387Z,7.00
2022-09-29T04:53:31.993Z,5.80
2022-09-29T04:55:58.494Z,9.73
2022-09-29T04:58:24.890Z,7.53
2022-09-29T05:00:51.346Z,8.93
2022-09-29T05:03:17.804Z,8.53
2022-09-29T05:05:44.227Z,8.30
2022-09-29T05:08:10.773Z,7.50
2022-09-29T05:10:37.285Z,7.67
2022-09-29T05:13:03.663Z,10.93
2022-09-29T05:15:30.163Z,8.70
2022-09-29T05:17:56.489Z,8.93
2022-09-29T05:20:22.889Z,7.77
2022-09-29T05:22:49.297Z,9.33
2022-09-29T05:25:15.790Z,9.20
2022-09-29T05:27:42.198Z,8.50
2022-09-29T05:30:09.174Z,9.77
2022-09-29T05:32:35.700Z,7.77
2022-09-29T05:35:03.394Z,9.50
2022-09-29T05:37:29.821Z,10.70
2022-09-29T05:39:56.232Z,5.60
2022-09-29T05:42:24.174Z,8.47
2022-09-29T05:44:50.542Z,7.83
2022-09-29T05:47:16.911Z,10.67
2022-09-29T05:49:43.283Z,9.67
2022-09-29T05:52:09.684Z,10.30
2022-09-29T05:54:36.077Z,7.30
2022-09-29T05:57:02.414Z,7.43
2022-09-29T05:59:28.790Z,8.40
2022-09-29T06:01:55.322Z,9.43
2022-09-29T06:04:21.802Z,7.83
2022-09-29T06:06:48.365Z,8.43
2022-09-29T06:09:15.086Z,8.80
2022-09-29T06:11:41.608Z,9.10
2022-09-29T06:14:07.982Z,8.90
2022-09-29T06:16:34.736Z,9.60
2022-09-29T06:19:02.186Z,9.93
2022-09-29T06:21:30.356Z,7.13
2022-09-29T06:23:57.851Z,8.10
2022-09-29T06:26:26.108Z,9.00
2022-09-29T06:28:53.664Z,11.37
2022-09-29T06:31:22.412Z,9.73
2022-09-29T06:33:49.157Z,10.33
2022-09-29T06:36:38.604Z,14.40
2022-09-29T06:39:06.546Z,8.33
2022-09-29T06:41:35.310Z,11.60
2022-09-29T06:44:02.449Z,14.30
2022-09-29T06:46:29.081Z,13.30
2022-09-29T06:48:55.784Z,16.83
2022-09-29T06:51:24.573Z,11.63
2022-09-29T06:53:56.059Z,12.00
2022-09-29T06:56:27.138Z,11.77
2022-09-29T06:58:53.599Z,12.20
2022-09-29T07:01:20.054Z,13.73
2022-09-29T07:03:46.690Z,11.17
2022-09-29T07:06:19.835Z,16.33
2022-09-29T07:08:47.085Z,11.33
2022-09-29T07:11:13.647Z,10.93
2022-09-29T07:13:40.027Z,10.87
2022-09-29T07:16:07.171Z,11.83
2022-09-29T07:18:38.129Z,10.80
2022-09-29T07:21:17.738Z,11.20
2022-09-29T07:23:45.973Z,16.07
2022-09-29T07:26:13.285Z,11.27
2022-09-29T07:28:40.187Z,11.33
2022-09-29T07:31:14.987Z,11.93
2022-09-29T07:33:43.609Z,16.40
2022-09-29T07:36:10.572Z,15.97
2022-09-29T07:38:37.060Z,12.17
2022-09-29T07:41:06.403Z,12.77
2022-09-29T07:43:32.981Z,12.80
2022-09-29T07:46:02.839Z,14.80
2022-09-29T07:48:32.157Z,18.23
2022-09-29T07:51:12.342Z,15.77
2022-09-29T07:53:39.254Z,18.03
2022-09-29T07:56:08.061Z,16.77
2022-09-29T07:58:35.331Z,15.70
2022-09-29T08:01:05.177Z,17.37
2022-09-29T08:03:32.300Z,18.97
2022-09-29T08:05:59.211Z,17.80
2022-09-29T08:08:26.010Z,20.00
2022-09-29T08:10:53.788Z,18.67
2022-09-29T08:13:20.612Z,18.27
2022-09-29T08:15:46.978Z,19.87
2022-09-29T08:18:13.386Z,16.83
2022-09-29T08:20:39.755Z,18.73
2022-09-29T08:23:06.976Z,21.53
2022-09-29T08:25:35.229Z,18.70
2022-09-29T08:28:01.998Z,18.10
2022-09-29T08:30:28.869Z,19.90
2022-09-29T08:32:55.419Z,19.20
2022-09-29T08:35:21.787Z,20.27
2022-09-29T08:37:48.900Z,17.40
2022-09-29T08:40:16.766Z,19.30
2022-09-29T08:43:11.143Z,19.87
2022-09-29T08:45:57.933Z,18.13
2022-09-29T08:48:29.315Z,19.33
2022-09-29T08:50:59.276Z,20.30
2022-09-29T08:53:29.580Z,17.53
2022-09-29T08:56:06.506Z,14.77
2022-09-29T08:58:34.457Z,13.30
2022-09-29T09:01:28.700Z,16.13
2022-09-29T09:04:12.411Z,11.20
2022-09-29T09:07:15.852Z,11.97
2022-09-29T09:09:56.352Z,12.10
2022-09-29T09:12:39.881Z,13.40
2022-09-29T09:15:21.563Z,14.30
2022-09-29T09:18:15.035Z,13.47
2022-09-29T09:20:50.286Z,15.33
2022-09-29T09:24:03.067Z,16.97
2022-09-29T09:26:38.080Z,12.07
2022-09-29T09:29:16.890Z,11.87
2022-09-29T09:31:58.054Z,13.97
2022-09-29T09:34:51.975Z,11.33
2022-09-29T09:37:23.687Z,11.37
2022-09-29T09:40:09.842Z,12.47
2022-09-29T09:42:39.764Z,13.07
2022-09-29T09:45:14.883Z,12.43
2022-09-29T09:47:50.042Z,12.53
2022-09-29T09:50:21.074Z,13.17
2022-09-29T09:53:05.089Z,11.73
2022-09-29T09:55:36.784Z,10.73
2022-09-29T09:58:09.464Z,13.50
2022-09-29T10:00:43.420Z,11.43
2022-09-29T10:03:12.186Z,11.07
2022-09-29T10:05:45.528Z,10.87
2022-09-29T10:08:27.412Z,10.13
2022-09-29T10:10:59.429Z,10.57
2022-09-29T10:13:29.224Z,9.93
2022-09-29T10:16:03.646Z,9.80
2022-09-29T10:18:45.588Z,9.80
2022-09-29T10:21:36.734Z,8.73
2022-09-29T10:24:08.073Z,9.83
2022-09-29T10:26:42.100Z,9.60
2022-09-29T10:29:24.845Z,10.03
2022-09-29T10:32:01.298Z,10.33
2022-09-29T10:34:29.987Z,9.67
2022-09-29T10:37:00.454Z,8.27
2022-09-29T10:40:02.888Z,10.50
2022-09-29T10:42:35.545Z,8.40
2022-09-29T10:45:13.943Z,8.73
2022-09-29T10:47:41.717Z,9.13
2022-09-29T10:50:16.875Z,11.23
2022-09-29T10:52:57.838Z,7.73
2022-09-29T10:55:48.493Z,9.40
2022-09-29T10:58:45.417Z,9.97
2022-09-29T11:01:17.594Z,7.63
2022-09-29T11:03:54.221Z,6.70
2022-09-29T11:06:35.653Z,5.57
2022-09-29T11:09:09.693Z,6.87
2022-09-29T11:11:48.267Z,8.27
2022-09-29T11:14:37.356Z,4.87
2022-09-29T11:17:23.600Z,8.37
2022-09-29T11:19:52.520Z,5.93
2022-09-29T11:22:38.202Z,5.57
2022-09-29T11:25:23.650Z,5.57
2022-09-29T11:28:22.501Z,4.87
2022-09-29T11:31:23.815Z,3.77
2022-09-29T11:34:02.271Z,6.80
2022-09-29T11:36:43.971Z,5.73
2022-09-29T11:39:25.356Z,6.97
2022-09-29T11:42:27.035Z,5.07
2022-09-29T11:44:59.298Z,4.60
2022-09-29T11:47:47.839Z,4.67
2022-09-29T11:51:02.639Z,4.50
2022-09-29T11:53:53.783Z,4.13
2022-09-29T11:56:23.221Z,3.53
2022-09-29T11:59:18.265Z,3.10
2022-09-29T12:02:18.110Z,3.47
2022-09-29T12:04:50.565Z,5.03
2022-09-29T12:07:46.326Z,5.63
2022-09-29T12:10:44.368Z,3.43
2022-09-29T12:13:29.827Z,3.20
2022-09-29T12:16:04.174Z,3.97
2022-09-29T12:18:39.505Z,3.20
2022-09-29T12:21:11.093Z,3.07
2022-09-29T12:23:43.360Z,3.13
2022-09-29T12:26:21.996Z,3.50
2022-09-29T12:28:58.956Z,3.17
2022-09-29T12:31:31.601Z,3.70
2022-09-29T12:34:03.007Z,3.03
2022-09-29T12:36:46.650Z,2.80
2022-09-29T12:39:55.721Z,2.37
2022-09-29T12:43:00.038Z,2.13
2022-09-29T12:45:34.995Z,2.33
2022-09-29T12:48:24.787Z,2.80
2022-09-29T12:51:00.359Z,2.37
2022-09-29T12:53:54.161Z,2.60
2022-09-29T12:56:26.700Z,4.23
2022-09-29T12:59:09.111Z,2.53
2022-09-29T13:01:37.944Z,2.03
2022-09-29T13:04:27.461Z,1.80
2022-09-29T13:07:02.971Z,1.93
2022-09-29T13:09:32.716Z,1.67
2022-09-29T13:12:37.319Z,2.23
2022-09-29T13:15:21.683Z,2.97
2022-09-29T13:18:23.651Z,2.70
2022-09-29T13:21:02.842Z,2.07
2022-09-29T13:23:35.369Z,2.73
2022-09-29T13:26:23.910Z,2.30
2022-09-29T13:28:56.241Z,4.00
2022-09-29T13:31:32.583Z,2.77
2022-09-29T13:34:02.002Z,2.23
2022-09-29T13:36:36.191Z,2.23
2022-09-29T13:39:07.054Z,2.47
2022-09-29T13:41:38.833Z,5.60
2022-09-29T13:44:20.609Z,2.83
2022-09-29T13:46:47.411Z,2.47
2022-09-29T13:49:15.622Z,2.37
2022-09-29T13:52:03.627Z,4.10
2022-09-29T13:54:32.804Z,2.33
2022-09-29T13:57:26.260Z,1.73
2022-09-29T13:59:56.451Z,1.33
2022-09-29T14:02:40.070Z,2.90
2022-09-29T14:05:26.783Z,1.90
2022-09-29T14:07:57.263Z,4.57
2022-09-29T14:10:44.076Z,2.13
2022-09-29T14:13:22.908Z,2.23
2022-09-29T14:16:17.111Z,3.30
2022-09-29T14:18:52.486Z,2.57
2022-09-29T14:21:51.698Z,2.93
2022-09-29T14:24:42.445Z,2.43
2022-09-29T14:27:21.709Z,3.47
2022-09-29T14:29:59.212Z,2.90
2022-09-29T14:32:52.502Z,1.40
2022-09-29T14:35:37.004Z,1.90
2022-09-29T14:38:26.666Z,2.33
2022-09-29T14:41:01.472Z,1.30
2022-09-29T14:43:36.161Z,1.37
2022-09-29T14:46:56.016Z,1.80
2022-09-29T14:50:01.269Z,1.43
2022-09-29T14:52:45.631Z,2.37
2022-09-29T14:55:29.061Z,2.10
2022-09-29T14:58:18.884Z,1.83
2022-09-29T15:01:25.704Z,1.10
2022-09-29T15:03:54.238Z,1.50
2022-09-29T15:06:26.918Z,1.30
2022-09-29T15:09:03.300Z,1.90
2022-09-29T15:11:43.230Z,2.03
2022-09-29T15:14:21.898Z,1.83
2022-09-29T15:17:05.395Z,1.80
2022-09-29T15:19:45.350Z,2.47
2022-09-29T15:22:26.359Z,4.20
2022-09-29T15:25:24.015Z,2.60
2022-09-29T15:27:53.660Z,2.67
2022-09-29T15:30:23.337Z,2.40
2022-09-29T15:32:51.813Z,4.07
2022-09-29T15:35:23.623Z,4.00
2022-09-29T15:37:50.014Z,4.17
2022-09-29T15:40:19.401Z,2.67
2022-09-29T15:42:46.780Z,4.57
2022-09-29T15:45:20.452Z,4.27
2022-09-29T15:47:46.914Z,5.60
2022-09-29T15:50:19.603Z,3.97
2022-09-29T15:52:46.532Z,5.07
2022-09-29T15:55:23.901Z,4.20
2022-09-29T15:57:55.699Z,5.83
2022-09-29T16:00:22.002Z,2.80
2022-09-29T16:03:02.696Z,6.17
2022-09-29T16:05:32.633Z,4.83
2022-09-29T16:08:16.658Z,4.70
2022-09-29T16:10:48.330Z,3.97
2022-09-29T16:13:21.092Z,4.93
2022-09-29T16:15:49.811Z,5.37
2022-09-29T16:18:26.539Z,3.87
2022-09-29T16:20:59.787Z,3.50
2022-09-29T16:23:37.802Z,3.70
2022-09-29T16:26:06.894Z,3.07
2022-09-29T16:28:39.186Z,3.43
2022-09-29T16:31:22.579Z,3.30
2022-09-29T16:33:56.857Z,4.70
2022-09-29T16:36:36.738Z,2.93
2022-09-29T16:39:05.043Z,9.10
2022-09-29T16:41:39.100Z,3.23
2022-09-29T16:44:16.107Z,4.13
2022-09-29T16:46:51.394Z,3.13
2022-09-29T16:49:40.738Z,4.37
2022-09-29T16:52:28.684Z,6.17
2022-09-29T16:55:16.310Z,4.10
2022-09-29T16:57:58.619Z,4.33
2022-09-29T17:00:25.575Z,3.90
2022-09-29T17:02:55.948Z,5.50
2022-09-29T17:05:24.106Z,4.80
2022-09-29T17:07:52.584Z,6.63
2022-09-29T17:10:22.050Z,3.93
2022-09-29T17:12:48.415Z,4.20
2022-09-29T17:15:16.417Z,2.90
2022-09-29T17:17:47.226Z,4.00
2022-09-29T17:20:16.424Z,5.70
2022-09-29T17:22:42.866Z,4.00
2022-09-29T17:25:10.740Z,4.00
2022-09-29T17:27:56.303Z,4.90
2022-09-29T17:30:25.640Z,5.27
2022-09-29T17:32:58.048Z,5.27
2022-09-29T17:35:27.765Z,3.73
2022-09-29T17:37:55.277Z,3.37
2022-09-29T17:40:24.067Z,6.63
2022-09-29T17:42:50.904Z,5.27
2022-09-29T17:45:20.120Z,3.77
2022-09-29T17:47:48.669Z,5.00
2022-09-29T17:50:21.074Z,4.57
2022-09-29T17:52:47.454Z,7.27
2022-09-29T17:55:13.963Z,4.23
2022-09-29T17:57:42.385Z,4.97
2022-09-29T18:00:24.730Z,4.40
2022-09-29T18:02:52.494Z,5.50
2022-09-29T18:05:22.633Z,5.40
2022-09-29T18:07:53.797Z,3.87
2022-09-29T18:10:35.980Z,5.00
2022-09-29T18:13:02.388Z,12.03
2022-09-29T18:15:28.808Z,6.43
2022-09-29T18:17:57.562Z,5.07
2022-09-29T18:20:24.393Z,4.77
2022-09-29T18:22:51.184Z,8.20
2022-09-29T18:25:19.074Z,6.33
2022-09-29T18:27:47.022Z,4.93
2022-09-29T18:30:31.498Z,5.27
2022-09-29T18:32:59.855Z,8.50
2022-09-29T18:35:32.548Z,5.37
2022-09-29T18:37:59.946Z,5.40
2022-09-29T18:40:28.152Z,6.30
2022-09-29T18:42:56.883Z,8.67
2022-09-29T18:45:27.396Z,5.47
2022-09-29T18:47:58.709Z,7.10
2022-09-29T18:50:28.634Z,6.50
2022-09-29T18:52:55.047Z,8.37
2022-09-29T18:55:24.191Z,6.17
2022-09-29T18:57:52.108Z,6.93
2022-09-29T19:00:21.362Z,6.57
2022-09-29T19:02:48.049Z,7.77
2022-09-29T19:05:21.047Z,6.23
2022-09-29T19:07:49.494Z,5.53
2022-09-29T19:10:17.251Z,5.10
2022-09-29T19:12:46.042Z,5.03
2022-09-29T19:15:13.466Z,4.10
2022-09-29T19:17:40.321Z,3.97
2022-09-29T19:20:06.885Z,6.93
2022-09-29T19:22:38.289Z,4.57
2022-09-29T19:25:06.520Z,4.27
2022-09-29T19:27:32.900Z,6.40
2022-09-29T19:30:03.245Z,3.97
2022-09-29T19:32:30.134Z,2.70
2022-09-29T19:34:56.543Z,3.30
2022-09-29T19:37:24.057Z,3.90
2022-09-29T19:39:51.120Z,4.43
2022-09-29T19:42:18.442Z,2.47
2022-09-29T19:44:44.800Z,4.10
2022-09-29T19:47:11.662Z,5.03
2022-09-29T19:49:38.047Z,4.13
2022-09-29T19:52:04.890Z,4.17
2022-09-29T19:54:35.456Z,6.73
2022-09-29T19:57:06.133Z,4.93
2022-09-29T19:59:35.084Z,6.00
2022-09-29T20:02:02.970Z,8.20
2022-09-29T20:04:33.415Z,7.50
2022-09-29T20:07:01.465Z,6.53
2022-09-29T20:09:28.434Z,6.10
2022-09-29T20:11:55.618Z,7.83
2022-09-29T20:14:23.425Z,6.93
2022-09-29T20:16:53.034Z,7.27
2022-09-29T20:19:21.779Z,4.40
2022-09-29T20:21:51.453Z,4.87
2022-09-29T20:24:20.588Z,5.73
2022-09-29T20:26:48.017Z,5.50
2022-09-29T20:29:19.439Z,7.43
2022-09-29T20:31:48.054Z,5.77
2022-09-29T20:34:16.737Z,5.17
2022-09-29T20:36:43.210Z,7.90
2022-09-29T20:39:11.006Z,10.20
2022-09-29T20:41:37.851Z,6.13
2022-09-29T20:44:04.336Z,5.97
2022-09-29T20:46:31.284Z,6.40
2022-09-29T20:48:59.124Z,8.97
2022-09-29T20:51:26.516Z,6.63
2022-09-29T20:53:55.517Z,6.93
2022-09-29T20:56:23.416Z,7.57
2022-09-29T20:58:51.277Z,8.27
2022-09-29T21:01:23.374Z,8.27
2022-09-29T21:03:54.089Z,5.87
2022-09-29T21:06:31.516Z,7.70
2022-09-29T21:08:59.208Z,8.23
2022-09-29T21:11:25.912Z,9.80
2022-09-29T21:13:57.838Z,6.80
2022-09-29T21:16:25.580Z,7.53
2022-09-29T21:18:54.954Z,7.17
2022-09-29T21:21:22.152Z,8.23
2022-09-29T21:23:50.505Z,7.20
2022-09-29T21:26:20.715Z,6.87
2022-09-29T21:28:50.904Z,6.47
2022-09-29T21:31:19.513Z,5.37
2022-09-29T21:33:50.275Z,6.37
2022-09-29T21:36:17.458Z,6.50
2022-09-29T21:38:44.877Z,6.33
2022-09-29T21:41:22.999Z,4.80
2022-09-29T21:43:52.472Z,5.17
2022-09-29T21:46:24.330Z,5.00
2022-09-29T21:48:55.997Z,4.50
2022-09-29T21:51:27.293Z,4.23
2022-09-29T21:53:57.550Z,4.77
2022-09-29T21:56:28.818Z,6.53
2022-09-29T21:58:56.496Z,5.80
2022-09-29T22:01:24.148Z,9.07
2022-09-29T22:03:51.725Z,6.17
2022-09-29T22:06:20.964Z,7.63
2022-09-29T22:08:48.176Z,7.47
2022-09-29T22:11:21.273Z,8.03
2022-09-29T22:13:52.166Z,6.67
2022-09-29T22:16:21.885Z,6.37
2022-09-29T22:19:05.856Z,7.57
2022-09-29T22:21:36.045Z,10.63
2022-09-29T22:24:03.771Z,7.53
2022-09-29T22:26:31.427Z,6.60
2022-09-29T22:29:01.278Z,4.80
2022-09-29T22:31:28.225Z,7.33
2022-09-29T22:34:04.161Z,7.80
2022-09-29T22:36:32.900Z,10.00
2022-09-29T22:38:59.873Z,8.23
2022-09-29T22:41:26.515Z,5.70
2022-09-29T22:43:54.575Z,5.23
2022-09-29T22:46:22.977Z,5.43
2022-09-29T22:48:49.584Z,6.47
2022-09-29T22:51:16.109Z,6.93
2022-09-29T22:53:42.750Z,7.73
2022-09-29T22:56:15.527Z,5.97
2022-09-29T22:58:42.264Z,8.37
2022-09-29T23:01:14.080Z,8.00
2022-09-29T23:03:42.779Z,5.63
2022-09-29T23:06:09.525Z,8.03
2022-09-29T23:08:36.821Z,7.17
2022-09-29T23:11:07.966Z,8.10
2022-09-29T23:13:36.930Z,7.53
2022-09-29T23:16:09.585Z,5.20
2022-09-29T23:18:43.611Z,9.27
2022-09-29T23:21:11.124Z,7.63
2022-09-29T23:23:37.649Z,8.30
2022-09-29T23:26:04.207Z,8.30
2022-09-29T23:28:30.677Z,6.07
2022-09-29T23:31:02.966Z,7.63
2022-09-29T23:33:29.402Z,8.03
2022-09-29T23:35:55.841Z,7.93
2022-09-29T23:38:41.070Z,7.77
2022-09-29T23:41:08.029Z,7.83
2022-09-29T23:43:34.454Z,8.00
2022-09-29T23:46:00.894Z,5.90
2022-09-29T23:48:28.203Z,7.37
2022-09-29T23:50:55.324Z,7.20
2022-09-29T23:53:21.762Z,5.93
2022-09-29T23:55:48.141Z,5.93
2022-09-29T23:58:14.552Z,6.43
